Luck, Wisconsin
Current Conditions -  °F | °C
As of 6:35 AM on Monday 26 Jan 2015 (Local Time) from KRZN Reporting Station
Overcast Overcast  
Wind Chill: 12°   Ceiling: 1300
Heat Index: 23°   Visibility: 10mi
Dew Point: 19°   Wind: 12mph
Humidity: 86%   Direction: 170°S
Pressure: 29.7"   Gusts: NA
Location:  45.58°N, 92.48°W
Report Text: KRZN 261235Z AUTO 17010KT 10SM OVC013 M05/M07 A2970 RMK AO2 T10501070
Loading
Personal Weather Stations






























Interactive Weather Map New forecast layout! Learn more

10-Day Weather Forecast

Advertisements
Track Severe Weather on mobile